createdAt,value
2022-09-24T00:04:10.788Z,21.3
2022-09-24T00:09:32.135Z,21.3
2022-09-24T00:15:09.430Z,21.3
2022-09-24T00:20:45.762Z,21.3
2022-09-24T00:26:23.243Z,21.3
2022-09-24T00:32:00.879Z,21.3
2022-09-24T00:37:38.750Z,21.3
2022-09-24T00:43:00.558Z,21.3
2022-09-24T00:48:21.857Z,21.3
2022-09-24T00:53:28.643Z,21.3
2022-09-24T00:58:50.028Z,21.3
2022-09-24T01:04:12.907Z,21.3
2022-09-24T01:09:35.232Z,21.3
2022-09-24T01:14:41.389Z,21.3
2022-09-24T01:20:03.646Z,21.3
2022-09-24T01:25:28.016Z,21.3
2022-09-24T01:30:49.255Z,21.2
2022-09-24T01:36:13.427Z,21.3
2022-09-24T01:41:35.626Z,21.3
2022-09-24T01:46:41.819Z,21.3
2022-09-24T01:52:05.541Z,21.2
2022-09-24T01:57:28.094Z,21.3
2022-09-24T02:02:35.014Z,21.2
2022-09-24T02:07:56.840Z,21.2
2022-09-24T02:13:03.762Z,21.2
2022-09-24T02:18:40.538Z,21.2
2022-09-24T02:23:47.241Z,21.2
2022-09-24T02:29:25.347Z,21.2
2022-09-24T02:34:47.611Z,21.3
2022-09-24T02:40:24.738Z,21.4
2022-09-24T02:45:47.212Z,21.3
2022-09-24T02:51:24.515Z,21.3
2022-09-24T02:56:46.104Z,21.2
2022-09-24T03:02:24.752Z,21.2
2022-09-24T03:13:28.932Z,21.1
2022-09-24T03:18:50.956Z,21.1
2022-09-24T03:24:12.442Z,21
2022-09-24T03:29:33.294Z,21
2022-09-24T03:34:56.515Z,21
2022-09-24T03:40:17.908Z,20.9
2022-09-24T03:45:38.877Z,20.9
2022-09-24T03:51:01.130Z,20.9
2022-09-24T03:56:22.257Z,20.9
2022-09-24T04:01:47.299Z,20.8
2022-09-24T04:06:59.086Z,20.8
2022-09-24T04:12:20.262Z,20.8
2022-09-24T04:17:56.756Z,20.8
2022-09-24T04:23:34.576Z,20.8
2022-09-24T04:28:55.867Z,20.8
2022-09-24T04:34:32.800Z,20.7
2022-09-24T04:40:11.744Z,20.7
2022-09-24T04:45:49.191Z,20.7
2022-09-24T04:51:17.860Z,20.7
2022-09-24T04:56:55.980Z,20.6
2022-09-24T05:02:39.325Z,20.6
2022-09-24T05:08:18.226Z,20.6
2022-09-24T05:14:00.637Z,20.6
2022-09-24T05:19:23.789Z,20.6
2022-09-24T05:24:30.049Z,20.6
2022-09-24T05:30:08.261Z,20.6
2022-09-24T05:35:45.917Z,20.6
2022-09-24T05:41:14.139Z,20.6
2022-09-24T05:46:37.306Z,20.6
2022-09-24T05:51:59.157Z,20.6
2022-09-24T05:57:26.935Z,20.6
2022-09-24T06:02:50.391Z,20.6
2022-09-24T06:08:01.376Z,23
2022-09-24T06:13:08.791Z,25.1
2022-09-24T06:18:31.891Z,24.6
2022-09-24T06:23:54.222Z,24.3
2022-09-24T06:29:04.827Z,27.5
2022-09-24T06:34:28.199Z,27.3
2022-09-24T06:44:57.983Z,28.4
2022-09-24T06:50:23.810Z,29.2
2022-09-24T06:56:03.406Z,29.9
2022-09-24T07:01:25.939Z,30.6
2022-09-24T07:06:50.083Z,31.3
2022-09-24T07:12:26.931Z,32
2022-09-24T07:18:07.104Z,32.8
2022-09-24T07:23:45.527Z,33.5
2022-09-24T07:29:22.801Z,34.2
2022-09-24T07:35:00.777Z,35
2022-09-24T07:40:23.593Z,35.7
2022-09-24T07:46:01.496Z,36.4
2022-09-24T07:51:28.160Z,37
2022-09-24T07:56:50.933Z,36.9
2022-09-24T08:02:13.223Z,37.6
2022-09-24T08:07:53.531Z,38.4
2022-09-24T08:13:00.780Z,39.1
2022-09-24T08:18:38.986Z,39.8
2022-09-24T08:24:16.465Z,40.6
2022-09-24T08:29:54.406Z,41.2
2022-09-24T08:35:31.408Z,41.8
2022-09-24T08:41:13.579Z,42.4
2022-09-24T08:46:52.105Z,42.9
2022-09-24T08:52:29.965Z,43.5
2022-09-24T08:57:52.447Z,44.1
2022-09-24T09:03:33.103Z,44.6
2022-09-24T09:09:55.936Z,45.1
2022-09-24T09:15:37.359Z,45.7
2022-09-24T09:21:00.093Z,46.2
2022-09-24T09:26:42.371Z,46.7
2022-09-24T09:31:56.442Z,47.2
2022-09-24T09:37:24.992Z,47.7
2022-09-24T09:42:47.974Z,48.2
2022-09-24T09:48:14.385Z,48.6
2022-09-24T09:53:36.941Z,49.1
2022-09-24T09:58:58.033Z,49.6
2022-09-24T10:04:21.780Z,49.9
2022-09-24T10:10:05.976Z,50.4
2022-09-24T10:15:45.459Z,50.8
2022-09-24T10:21:28.137Z,51.3
2022-09-24T10:27:06.722Z,51.6
2022-09-24T10:32:13.259Z,52
2022-09-24T10:42:17.176Z,52.7
2022-09-24T10:47:39.736Z,52.9
2022-09-24T10:53:07.491Z,53.2
2022-09-24T10:57:43.925Z,53.5
2022-09-24T11:03:22.646Z,53.8
2022-09-24T11:09:01.603Z,54.1
2022-09-24T11:14:41.820Z,54.4
2022-09-24T11:20:04.134Z,54.6
2022-09-24T11:25:26.334Z,54.9
2022-09-24T11:31:04.733Z,55.2
2022-09-24T11:36:31.280Z,55.4
2022-09-24T11:42:08.977Z,55.5
2022-09-24T11:47:47.797Z,55.4
2022-09-24T11:53:28.064Z,55.8
2022-09-24T11:58:52.996Z,56
2022-09-24T12:04:16.419Z,56
2022-09-24T12:09:53.215Z,56.3
2022-09-24T12:15:14.883Z,56.3
2022-09-24T12:20:21.992Z,56.6
2022-09-24T12:25:29.576Z,56.2
2022-09-24T12:31:11.985Z,55.8
2022-09-24T12:36:34.860Z,56.1
2022-09-24T12:42:02.537Z,56.3
2022-09-24T12:47:45.852Z,56.4
2022-09-24T12:52:52.633Z,56.4
2022-09-24T12:58:31.821Z,56.4
2022-09-24T13:04:15.945Z,56.4
2022-09-24T13:09:42.278Z,56.3
2022-09-24T13:15:22.204Z,56.2
2022-09-24T13:21:06.722Z,56.1
2022-09-24T13:26:44.416Z,55.9
2022-09-24T13:32:28.224Z,55.8
2022-09-24T13:38:07.720Z,55.8
2022-09-24T13:43:46.169Z,55.5
2022-09-24T13:49:24.031Z,55.1
2022-09-24T13:55:01.842Z,54.6
2022-09-24T14:00:39.778Z,54
2022-09-24T14:06:18.139Z,53.3
2022-09-24T14:11:24.912Z,48
2022-09-24T14:16:32.678Z,44.5
2022-09-24T14:21:55.328Z,44
2022-09-24T14:27:32.865Z,43.9
2022-09-24T14:33:12.932Z,43.7
2022-09-24T14:38:38.264Z,43.4
2022-09-24T14:44:16.376Z,43.1
2022-09-24T14:49:55.056Z,42.7
2022-09-24T14:55:33.152Z,41.2
2022-09-24T15:00:57.776Z,39.1
2022-09-24T15:06:40.912Z,37.8
2022-09-24T15:12:18.435Z,36.2
2022-09-24T15:17:56.674Z,35
2022-09-24T15:23:34.972Z,33.9
2022-09-24T15:29:15.235Z,33.1
2022-09-24T15:34:53.646Z,32.4
2022-09-24T15:40:16.386Z,31.8
2022-09-24T15:45:40.326Z,31.3
2022-09-24T15:51:07.335Z,30.8
2022-09-24T15:56:32.862Z,30.4
2022-09-24T16:02:00.621Z,30
2022-09-24T16:07:39.047Z,29.8
2022-09-24T16:13:05.428Z,29.4
2022-09-24T16:18:46.678Z,29.2
2022-09-24T16:23:59.380Z,29
2022-09-24T16:29:37.798Z,28.8
2022-09-24T16:35:15.838Z,28.6
2022-09-24T16:40:53.342Z,28.3
2022-09-24T16:46:20.362Z,28.1
2022-09-24T16:51:43.252Z,27.7
2022-09-24T16:56:39.728Z,27.5
2022-09-24T17:02:02.736Z,27.3
2022-09-24T17:07:45.473Z,27.1
2022-09-24T17:13:30.259Z,26.9
2022-09-24T17:18:56.321Z,26.8
2022-09-24T17:24:38.037Z,26.7
2022-09-24T17:30:04.615Z,26.6
2022-09-24T17:36:11.307Z,26.4
2022-09-24T17:41:49.899Z,26.3
2022-09-24T17:47:01.918Z,26.1
2022-09-24T17:52:24.444Z,25.7
2022-09-24T17:58:02.857Z,25.3
2022-09-24T18:03:25.917Z,24.9
2022-09-24T18:09:03.855Z,24.6
2022-09-24T18:14:31.279Z,24.4
2022-09-24T18:19:54.441Z,24.2
2022-09-24T18:25:17.554Z,24
2022-09-24T18:30:39.131Z,23.8
2022-09-24T18:36:17.165Z,23.7
2022-09-24T18:41:40.168Z,23.6
2022-09-24T18:47:18.824Z,23.6
2022-09-24T18:52:41.223Z,23.5
2022-09-24T18:58:03.692Z,23.4
2022-09-24T19:03:28.515Z,23.4
2022-09-24T19:09:06.362Z,23.3
2022-09-24T19:14:48.929Z,23.3
2022-09-24T19:19:59.370Z,23.3
2022-09-24T19:25:22.593Z,23.3
2022-09-24T19:30:45.478Z,23.2
2022-09-24T19:35:52.987Z,23.1
2022-09-24T19:41:01.116Z,23.2
2022-09-24T19:46:08.451Z,23.1
2022-09-24T19:51:19.696Z,23.1
2022-09-24T19:56:30.656Z,23.1
2022-09-24T20:01:53.455Z,23.1
2022-09-24T20:07:22.170Z,23.1
2022-09-24T20:12:13.323Z,23.1
2022-09-24T20:17:20.572Z,23.1
2022-09-24T20:22:45.823Z,23.1
2022-09-24T20:27:37.062Z,23.1
2022-09-24T20:32:30.504Z,23.1
2022-09-24T20:37:55.751Z,23.1
2022-09-24T20:43:17.141Z,23
2022-09-24T20:48:46.363Z,23.1
2022-09-24T20:53:54.646Z,23
2022-09-24T20:59:17.004Z,23
2022-09-24T21:05:07.085Z,23
2022-09-24T21:10:45.005Z,23
2022-09-24T21:16:24.909Z,22.9
2022-09-24T21:22:36.451Z,23
2022-09-24T21:28:39.603Z,23
2022-09-24T21:34:02.221Z,22.9
2022-09-24T21:39:40.493Z,22.9
2022-09-24T21:45:18.436Z,22.9
2022-09-24T21:50:24.172Z,22.9
2022-09-24T21:55:30.702Z,22.9
2022-09-24T22:00:52.649Z,22.9
2022-09-24T22:06:30.435Z,22.9
2022-09-24T22:11:52.225Z,22.9
2022-09-24T22:17:29.965Z,22.9
2022-09-24T22:22:52.109Z,22.9
2022-09-24T22:27:58.338Z,22.9
2022-09-24T22:33:28.836Z,22.9
2022-09-24T22:38:52.604Z,22.9
2022-09-24T22:44:32.954Z,22.9
2022-09-24T22:49:57.437Z,22.9
2022-09-24T22:55:36.950Z,22.9
2022-09-24T23:01:16.102Z,22.9
2022-09-24T23:07:00.683Z,22.9
2022-09-24T23:12:23.083Z,22.9
2022-09-24T23:18:01.455Z,22.9
2022-09-24T23:23:24.062Z,22.9
2022-09-24T23:29:02.297Z,22.9
2022-09-24T23:34:39.927Z,22.9
2022-09-24T23:40:17.893Z,22.9
2022-09-24T23:45:38.853Z,22.9
2022-09-24T23:50:45.937Z,22.9
2022-09-24T23:56:23.857Z,22.9
